Time;durP1;ratioP1;P1;durP2;ratioP2;P2;SDS_P1;SDS_P2;PMS_P1;PMS_P2;Temp;Humidity;BMP_temperature;BMP_pressure;BME280_temperature;BME280_humidity;BME280_pressure;Samples;Min_cycle;Max_cycle;Signal;HPM_P1;HPM_P2
2023/05/14 00:00:56;;;;;;;9.82;5.70;;;;;;;;;;5022064;28;20167;-80
2023/05/14 00:03:22;;;;;;;8.90;4.95;;;;;;;;;;5029496;28;20118;-81
2023/05/14 00:05:48;;;;;;;11.82;5.97;;;;;;;;;;5040321;28;20049;-81
2023/05/14 00:08:14;;;;;;;7.50;5.18;;;;;;;;;;5029639;28;20025;-81
2023/05/14 00:10:40;;;;;;;7.63;4.93;;;;;;;;;;5032978;28;20041;-81
2023/05/14 00:13:06;;;;;;;9.70;5.28;;;;;;;;;;5028365;28;20032;-81
2023/05/14 00:15:32;;;;;;;11.38;5.75;;;;;;;;;;5023414;28;20033;-82
2023/05/14 00:17:58;;;;;;;7.93;4.90;;;;;;;;;;5027036;28;20056;-81
2023/05/14 00:20:24;;;;;;;10.18;6.05;;;;;;;;;;5029109;28;20121;-82
2023/05/14 00:22:50;;;;;;;9.73;5.60;;;;;;;;;;5027683;28;20021;-82
2023/05/14 00:25:16;;;;;;;13.77;4.90;;;;;;;;;;5029045;28;20392;-81
2023/05/14 00:27:42;;;;;;;7.18;4.63;;;;;;;;;;5028172;28;20044;-81
2023/05/14 00:30:08;;;;;;;9.95;5.13;;;;;;;;;;5029131;28;20075;-81
2023/05/14 00:32:34;;;;;;;8.75;5.50;;;;;;;;;;5027108;28;20120;-82
2023/05/14 00:35:03;;;;;;;8.98;5.38;;;;;;;;;;5029554;28;20112;-82
2023/05/14 00:37:29;;;;;;;10.13;5.03;;;;;;;;;;5029780;28;20408;-81
2023/05/14 00:39:55;;;;;;;10.77;5.28;;;;;;;;;;5028111;28;20033;-81
2023/05/14 00:42:21;;;;;;;12.25;4.90;;;;;;;;;;5022758;28;20063;-81
2023/05/14 00:44:47;;;;;;;9.40;4.82;;;;;;;;;;5031306;28;20495;-80
2023/05/14 00:47:13;;;;;;;8.05;4.80;;;;;;;;;;5028632;28;20468;-79
2023/05/14 00:49:40;;;;;;;9.45;5.38;;;;;;;;;;5031132;28;20476;-80
2023/05/14 00:52:06;;;;;;;7.28;4.82;;;;;;;;;;5023973;28;20014;-80
2023/05/14 00:54:33;;;;;;;10.38;5.15;;;;;;;;;;5026466;28;20026;-80
2023/05/14 00:57:11;;;;;;;8.55;4.85;;;;;;;;;;5033284;28;20091;-82
2023/05/14 00:59:40;;;;;;;6.72;4.38;;;;;;;;;;5030076;28;20524;-81
2023/05/14 01:02:06;;;;;;;8.75;4.80;;;;;;;;;;5032557;28;20028;-80
2023/05/14 01:04:33;;;;;;;9.73;5.07;;;;;;;;;;5029796;28;20025;-81
2023/05/14 01:07:18;;;;;;;7.60;4.78;;;;;;;;;;5034455;28;20062;-82
2023/05/14 01:09:53;;;;;;;6.63;4.05;;;;;;;;;;5028912;28;20480;-80
2023/05/14 01:12:25;;;;;;;6.28;4.38;;;;;;;;;;5033788;28;20067;-80
2023/05/14 01:14:59;;;;;;;7.07;4.53;;;;;;;;;;5029413;28;20099;-80
2023/05/14 01:17:28;;;;;;;7.68;4.35;;;;;;;;;;5029190;28;20395;-81
2023/05/14 01:19:54;;;;;;;5.72;3.83;;;;;;;;;;5021051;28;20041;-80
2023/05/14 01:22:21;;;;;;;8.43;4.57;;;;;;;;;;5029183;28;20036;-81
2023/05/14 01:24:47;;;;;;;8.73;4.55;;;;;;;;;;5026998;28;20021;-81
2023/05/14 01:27:17;;;;;;;8.55;4.82;;;;;;;;;;5031905;28;20021;-80
2023/05/14 01:29:48;;;;;;;7.90;4.55;;;;;;;;;;5029439;28;20025;-81
2023/05/14 01:32:15;;;;;;;8.20;4.38;;;;;;;;;;5026090;28;20044;-82
2023/05/14 01:34:41;;;;;;;7.85;4.20;;;;;;;;;;5029507;28;20090;-80
2023/05/14 01:37:07;;;;;;;8.20;4.15;;;;;;;;;;5030937;28;20086;-80
2023/05/14 01:39:36;;;;;;;8.35;4.25;;;;;;;;;;5028848;28;20025;-80
2023/05/14 01:42:02;;;;;;;6.80;4.40;;;;;;;;;;5033237;28;20488;-80
2023/05/14 01:44:28;;;;;;;5.32;3.92;;;;;;;;;;5037264;28;20035;-80
2023/05/14 01:46:54;;;;;;;8.43;4.38;;;;;;;;;;5032093;28;20026;-80
2023/05/14 01:49:20;;;;;;;6.32;4.07;;;;;;;;;;5020334;28;20040;-80
2023/05/14 01:51:46;;;;;;;5.63;4.05;;;;;;;;;;5028217;28;20025;-80
2023/05/14 01:54:12;;;;;;;6.80;4.18;;;;;;;;;;5033835;28;20111;-80
2023/05/14 01:56:38;;;;;;;6.47;4.03;;;;;;;;;;5029257;28;20025;-81
2023/05/14 01:59:05;;;;;;;8.80;4.55;;;;;;;;;;5019940;28;20079;-80
2023/05/14 02:01:31;;;;;;;5.47;3.85;;;;;;;;;;5028459;28;20489;-80
2023/05/14 02:03:57;;;;;;;10.80;4.18;;;;;;;;;;5035299;28;20037;-80
2023/05/14 02:06:23;;;;;;;7.07;4.15;;;;;;;;;;5041964;28;20056;-80
2023/05/14 02:08:49;;;;;;;5.30;3.58;;;;;;;;;;5028028;28;20708;-80
2023/05/14 02:11:15;;;;;;;8.93;4.32;;;;;;;;;;5028516;28;20045;-80
2023/05/14 02:13:41;;;;;;;6.10;4.30;;;;;;;;;;5038157;28;20048;-80
2023/05/14 02:16:07;;;;;;;7.20;4.05;;;;;;;;;;5028677;28;20026;-80
2023/05/14 02:18:33;;;;;;;4.65;3.20;;;;;;;;;;5028429;28;20120;-81
2023/05/14 02:20:59;;;;;;;5.18;3.97;;;;;;;;;;5026141;28;20030;-81
2023/05/14 02:23:25;;;;;;;6.80;4.38;;;;;;;;;;5034156;28;20451;-80
2023/05/14 02:25:51;;;;;;;6.90;3.65;;;;;;;;;;5027807;28;20021;-80
2023/05/14 02:28:17;;;;;;;6.43;3.90;;;;;;;;;;5028808;28;20075;-80
2023/05/14 02:30:43;;;;;;;6.35;3.83;;;;;;;;;;5027621;28;20021;-80
2023/05/14 02:33:09;;;;;;;6.53;3.78;;;;;;;;;;5031312;28;20056;-79
2023/05/14 02:35:36;;;;;;;6.40;4.00;;;;;;;;;;5027283;28;20029;-80
2023/05/14 02:38:02;;;;;;;7.68;4.35;;;;;;;;;;5028671;28;20079;-80
2023/05/14 02:40:28;;;;;;;5.90;3.40;;;;;;;;;;5028112;28;20037;-80
2023/05/14 02:42:54;;;;;;;6.13;3.67;;;;;;;;;;5031102;28;20028;-80
2023/05/14 02:45:20;;;;;;;4.55;3.53;;;;;;;;;;5037843;28;20052;-80
2023/05/14 02:47:46;;;;;;;5.22;3.53;;;;;;;;;;5027406;28;20367;-81
2023/05/14 02:50:12;;;;;;;7.55;3.45;;;;;;;;;;5027366;28;20017;-81
2023/05/14 02:52:38;;;;;;;6.28;3.83;;;;;;;;;;5028263;28;20026;-81
2023/05/14 02:55:05;;;;;;;5.90;4.10;;;;;;;;;;5039621;28;20121;-81
2023/05/14 02:57:31;;;;;;;7.40;3.45;;;;;;;;;;5028349;28;20025;-81
2023/05/14 02:59:56;;;;;;;4.57;3.22;;;;;;;;;;5019541;28;20013;-81
2023/05/14 03:02:22;;;;;;;8.00;4.07;;;;;;;;;;5026221;28;20048;-81
2023/05/14 03:04:49;;;;;;;6.63;3.75;;;;;;;;;;5034191;28;20036;-81
2023/05/14 03:07:15;;;;;;;7.60;3.70;;;;;;;;;;5029978;28;20087;-80
2023/05/14 03:09:41;;;;;;;6.68;3.78;;;;;;;;;;5028053;28;20033;-81
2023/05/14 03:12:07;;;;;;;4.30;3.33;;;;;;;;;;5038173;28;20439;-81
2023/05/14 03:14:33;;;;;;;4.78;3.30;;;;;;;;;;5026882;28;20040;-80
2023/05/14 03:16:59;;;;;;;4.88;3.25;;;;;;;;;;5029100;28;20026;-81
2023/05/14 03:19:25;;;;;;;6.35;3.60;;;;;;;;;;5030163;28;20029;-80
2023/05/14 03:21:51;;;;;;;5.70;3.35;;;;;;;;;;5033704;28;20025;-80
2023/05/14 03:24:17;;;;;;;6.07;3.03;;;;;;;;;;5028108;28;20037;-80
2023/05/14 03:26:43;;;;;;;6.60;3.63;;;;;;;;;;5034064;28;20611;-81
2023/05/14 03:29:09;;;;;;;4.38;3.33;;;;;;;;;;5029966;28;20419;-80
2023/05/14 03:31:35;;;;;;;6.55;3.60;;;;;;;;;;5031348;28;20037;-80
2023/05/14 03:34:01;;;;;;;4.40;3.17;;;;;;;;;;5031016;28;20009;-80
2023/05/14 03:36:27;;;;;;;4.30;3.08;;;;;;;;;;5042010;28;20033;-80
2023/05/14 03:38:53;;;;;;;5.57;2.97;;;;;;;;;;5030986;28;20021;-80
2023/05/14 03:41:20;;;;;;;5.35;3.13;;;;;;;;;;5030918;28;20044;-81
2023/05/14 03:43:46;;;;;;;4.47;3.15;;;;;;;;;;5028202;28;20075;-80
2023/05/14 03:46:12;;;;;;;4.47;3.28;;;;;;;;;;5030948;28;20117;-82
2023/05/14 03:48:38;;;;;;;4.85;2.78;;;;;;;;;;5030705;28;20021;-81
2023/05/14 03:51:04;;;;;;;5.55;3.15;;;;;;;;;;5030129;28;20025;-81
2023/05/14 03:53:30;;;;;;;5.75;2.95;;;;;;;;;;5028915;28;20025;-81
2023/05/14 03:55:56;;;;;;;4.22;3.22;;;;;;;;;;5027138;28;20357;-81
2023/05/14 03:58:22;;;;;;;5.07;2.85;;;;;;;;;;5029003;28;20034;-81
2023/05/14 04:00:48;;;;;;;5.93;3.45;;;;;;;;;;5026994;28;20017;-81
2023/05/14 04:03:14;;;;;;;4.10;2.88;;;;;;;;;;5027228;28;20476;-80
2023/05/14 04:05:40;;;;;;;3.45;2.65;;;;;;;;;;5023589;28;20044;-80
2023/05/14 04:08:06;;;;;;;4.63;3.10;;;;;;;;;;5022403;28;20322;-80
2023/05/14 04:10:34;;;;;;;3.83;2.45;;;;;;;;;;5020465;28;20083;-80
2023/05/14 04:13:00;;;;;;;4.05;2.65;;;;;;;;;;5017992;28;20120;-80
2023/05/14 04:15:26;;;;;;;6.10;3.42;;;;;;;;;;5018655;28;20025;-80
2023/05/14 04:17:52;;;;;;;7.13;3.30;;;;;;;;;;5016694;28;20029;-81
2023/05/14 04:20:18;;;;;;;4.78;3.17;;;;;;;;;;5017350;28;20048;-80
2023/05/14 04:22:44;;;;;;;3.97;2.80;;;;;;;;;;5023047;28;20043;-80
2023/05/14 04:25:10;;;;;;;4.28;3.22;;;;;;;;;;5013969;28;20030;-81
2023/05/14 04:27:36;;;;;;;4.78;3.20;;;;;;;;;;5014600;28;20026;-80
2023/05/14 04:30:02;;;;;;;3.60;2.78;;;;;;;;;;5028424;28;20029;-80
2023/05/14 04:32:29;;;;;;;3.22;2.33;;;;;;;;;;5024365;28;21046;-80
2023/05/14 04:34:55;;;;;;;2.90;2.60;;;;;;;;;;5010444;28;20380;-81
2023/05/14 04:37:24;;;;;;;4.50;2.75;;;;;;;;;;5017191;28;20200;-80
2023/05/14 04:39:50;;;;;;;3.08;2.60;;;;;;;;;;5013431;28;20040;-80
2023/05/14 04:42:19;;;;;;;5.03;2.80;;;;;;;;;;5009803;28;20033;-80
2023/05/14 04:44:45;;;;;;;3.80;2.70;;;;;;;;;;5009600;28;20602;-80
2023/05/14 04:47:11;;;;;;;5.43;3.17;;;;;;;;;;5012740;28;20108;-81
2023/05/14 04:49:37;;;;;;;4.60;2.75;;;;;;;;;;5011278;28;20108;-80
2023/05/14 04:52:03;;;;;;;5.20;2.85;;;;;;;;;;5011405;28;20067;-80
2023/05/14 04:54:29;;;;;;;4.53;2.88;;;;;;;;;;5014989;28;20488;-80
2023/05/14 04:56:55;;;;;;;8.13;3.00;;;;;;;;;;5009538;28;20036;-80
2023/05/14 04:59:21;;;;;;;3.50;2.60;;;;;;;;;;5027293;28;20091;-80
2023/05/14 05:01:47;;;;;;;3.92;2.53;;;;;;;;;;5035084;28;20056;-81
2023/05/14 05:04:13;;;;;;;3.83;2.90;;;;;;;;;;5019801;28;20091;-80
2023/05/14 05:06:39;;;;;;;4.55;3.22;;;;;;;;;;5008490;28;20329;-81
2023/05/14 05:09:05;;;;;;;3.45;2.65;;;;;;;;;;5012742;28;20025;-80
2023/05/14 05:11:31;;;;;;;2.75;2.45;;;;;;;;;;5025477;28;20036;-80
2023/05/14 05:13:57;;;;;;;3.58;2.40;;;;;;;;;;5017799;28;20029;-81
2023/05/14 05:16:26;;;;;;;4.80;2.90;;;;;;;;;;5023887;28;20041;-80
2023/05/14 05:18:52;;;;;;;4.32;2.50;;;;;;;;;;5028789;28;20362;-81
2023/05/14 05:21:18;;;;;;;4.55;2.00;;;;;;;;;;5022694;28;20037;-80
2023/05/14 05:23:43;;;;;;;5.65;2.42;;;;;;;;;;5034434;28;20146;-81
2023/05/14 05:26:09;;;;;;;4.38;2.60;;;;;;;;;;5012665;28;20107;-81
2023/05/14 05:28:35;;;;;;;4.15;2.28;;;;;;;;;;5012945;28;20029;-80
2023/05/14 05:31:01;;;;;;;4.22;2.50;;;;;;;;;;5028851;28;20075;-81
2023/05/14 05:33:28;;;;;;;5.38;2.95;;;;;;;;;;5030151;28;20126;-81
2023/05/14 05:35:53;;;;;;;3.28;2.28;;;;;;;;;;5018447;28;20404;-81
2023/05/14 05:38:19;;;;;;;3.45;2.60;;;;;;;;;;5025905;28;20017;-81
2023/05/14 05:40:46;;;;;;;3.08;2.20;;;;;;;;;;5026697;28;20476;-81
2023/05/14 05:43:12;;;;;;;4.22;2.35;;;;;;;;;;5029239;28;20057;-81
2023/05/14 05:45:38;;;;;;;4.38;2.58;;;;;;;;;;5023257;28;20017;-80
2023/05/14 05:48:05;;;;;;;4.00;2.70;;;;;;;;;;5034417;28;20022;-76
2023/05/14 05:50:31;;;;;;;4.72;2.88;;;;;;;;;;5022555;28;20087;-76
2023/05/14 05:53:00;;;;;;;2.35;1.75;;;;;;;;;;5023468;28;20025;-76
2023/05/14 05:55:26;;;;;;;3.25;2.78;;;;;;;;;;5032723;28;20212;-75
2023/05/14 05:57:52;;;;;;;3.28;2.10;;;;;;;;;;5026351;28;20022;-75
2023/05/14 06:00:18;;;;;;;2.42;2.03;;;;;;;;;;5027287;28;20022;-74
2023/05/14 06:02:44;;;;;;;3.15;2.30;;;;;;;;;;5022018;28;20038;-75
2023/05/14 06:05:12;;;;;;;5.07;2.85;;;;;;;;;;5008896;28;20040;-76
2023/05/14 06:07:38;;;;;;;2.25;2.03;;;;;;;;;;5027608;28;20026;-74
2023/05/14 06:10:05;;;;;;;3.25;2.30;;;;;;;;;;5027643;28;20041;-73
2023/05/14 06:12:31;;;;;;;3.15;1.95;;;;;;;;;;5026832;28;20032;-73
2023/05/14 06:15:00;;;;;;;3.00;1.90;;;;;;;;;;5025213;28;20452;-73
2023/05/14 06:17:26;;;;;;;3.47;2.13;;;;;;;;;;5023683;28;20032;-73
2023/05/14 06:19:52;;;;;;;2.53;1.90;;;;;;;;;;5027169;28;20018;-73
2023/05/14 06:22:18;;;;;;;2.85;2.15;;;;;;;;;;5024396;28;20048;-73
2023/05/14 06:24:44;;;;;;;5.70;2.33;;;;;;;;;;5025853;28;20034;-73
2023/05/14 06:27:10;;;;;;;5.25;3.38;;;;;;;;;;5034727;28;20028;-75
2023/05/14 06:29:37;;;;;;;4.03;2.15;;;;;;;;;;5029285;28;20025;-72
2023/05/14 06:32:03;;;;;;;2.70;1.85;;;;;;;;;;5025116;28;20063;-72
2023/05/14 06:34:29;;;;;;;2.83;2.20;;;;;;;;;;5015345;28;20042;-72
2023/05/14 06:36:56;;;;;;;2.53;2.28;;;;;;;;;;5036221;28;20129;-74
2023/05/14 06:39:23;;;;;;;2.60;1.95;;;;;;;;;;5024565;28;20320;-73
2023/05/14 06:41:49;;;;;;;3.50;2.10;;;;;;;;;;5025066;28;20033;-73
2023/05/14 06:44:15;;;;;;;3.42;2.00;;;;;;;;;;5026817;28;20037;-73
2023/05/14 06:46:41;;;;;;;3.15;2.17;;;;;;;;;;5023414;28;20029;-74
2023/05/14 06:49:07;;;;;;;2.90;2.03;;;;;;;;;;5025243;28;20033;-73
2023/05/14 06:51:33;;;;;;;6.07;2.42;;;;;;;;;;5025852;28;20029;-73
2023/05/14 06:53:59;;;;;;;3.67;2.28;;;;;;;;;;5025084;28;20036;-74
2023/05/14 06:56:25;;;;;;;3.15;1.95;;;;;;;;;;5024707;28;20524;-73
2023/05/14 06:58:51;;;;;;;2.90;2.00;;;;;;;;;;5027803;28;20036;-73
2023/05/14 07:01:17;;;;;;;5.57;2.25;;;;;;;;;;5021629;28;20579;-73
2023/05/14 07:03:43;;;;;;;2.85;1.98;;;;;;;;;;5034261;28;20045;-73
2023/05/14 07:06:09;;;;;;;2.38;1.85;;;;;;;;;;5036988;28;20032;-73
2023/05/14 07:08:35;;;;;;;2.88;2.20;;;;;;;;;;5026030;28;20056;-71
2023/05/14 07:11:01;;;;;;;3.28;1.85;;;;;;;;;;5026593;28;20033;-72
2023/05/14 07:13:27;;;;;;;3.10;2.13;;;;;;;;;;5024381;28;20029;-73
2023/05/14 07:15:54;;;;;;;2.83;2.03;;;;;;;;;;5025825;28;20048;-73
2023/05/14 07:18:21;;;;;;;4.28;2.90;;;;;;;;;;5030274;28;20041;-73
2023/05/14 07:20:47;;;;;;;2.33;1.77;;;;;;;;;;5023909;28;20025;-73
2023/05/14 07:23:13;;;;;;;2.42;1.80;;;;;;;;;;5025344;28;20041;-74
2023/05/14 07:25:39;;;;;;;2.85;2.30;;;;;;;;;;5027033;28;20088;-73
2023/05/14 07:28:05;;;;;;;3.80;2.33;;;;;;;;;;5024799;28;20033;-73
2023/05/14 07:30:31;;;;;;;2.13;1.92;;;;;;;;;;5020667;28;20025;-72
2023/05/14 07:32:57;;;;;;;2.53;1.77;;;;;;;;;;5030432;28;20028;-74
2023/05/14 07:35:23;;;;;;;3.65;2.15;;;;;;;;;;5023888;28;20030;-75
2023/05/14 07:37:49;;;;;;;4.00;2.13;;;;;;;;;;5023367;28;20049;-75
2023/05/14 07:40:15;;;;;;;2.53;2.00;;;;;;;;;;5024224;28;20479;-75
2023/05/14 07:42:41;;;;;;;4.20;2.30;;;;;;;;;;5025226;28;20049;-74
2023/05/14 07:45:08;;;;;;;3.22;2.10;;;;;;;;;;5021544;28;20056;-74
2023/05/14 07:47:34;;;;;;;2.45;1.83;;;;;;;;;;5017900;28;20087;-77
2023/05/14 07:50:00;;;;;;;2.78;1.90;;;;;;;;;;5024260;28;20080;-77
2023/05/14 07:52:26;;;;;;;6.18;2.10;;;;;;;;;;5027075;28;20053;-74
2023/05/14 07:54:52;;;;;;;2.13;1.70;;;;;;;;;;5022594;28;20037;-76
2023/05/14 07:57:18;;;;;;;5.40;2.13;;;;;;;;;;5020523;28;20026;-76
2023/05/14 07:59:44;;;;;;;3.08;1.85;;;;;;;;;;5020617;28;20022;-81
2023/05/14 08:02:11;;;;;;;1.80;1.58;;;;;;;;;;5025230;28;20017;-77
2023/05/14 08:04:37;;;;;;;3.05;2.22;;;;;;;;;;5025524;28;20091;-77
2023/05/14 08:07:03;;;;;;;3.20;1.90;;;;;;;;;;5027476;28;20596;-76
2023/05/14 08:09:29;;;;;;;3.53;1.80;;;;;;;;;;5008612;28;20498;-77
2023/05/14 08:11:55;;;;;;;2.45;1.90;;;;;;;;;;5025363;28;20029;-76
2023/05/14 08:14:21;;;;;;;2.22;1.60;;;;;;;;;;5028216;28;20025;-75
2023/05/14 08:16:47;;;;;;;3.85;2.20;;;;;;;;;;5022444;28;20083;-78
2023/05/14 08:19:14;;;;;;;3.28;1.92;;;;;;;;;;5026687;28;20551;-77
2023/05/14 08:21:40;;;;;;;2.70;1.80;;;;;;;;;;5026467;28;20096;-75
2023/05/14 08:24:06;;;;;;;2.50;1.90;;;;;;;;;;5026920;28;20439;-76
2023/05/14 08:26:32;;;;;;;2.45;1.83;;;;;;;;;;5026805;28;20490;-76
2023/05/14 08:28:58;;;;;;;2.67;1.90;;;;;;;;;;5026995;28;20025;-75
2023/05/14 08:31:24;;;;;;;3.40;1.90;;;;;;;;;;5026818;28;20032;-77
2023/05/14 08:33:50;;;;;;;2.42;1.80;;;;;;;;;;5027413;28;20026;-77
2023/05/14 08:36:16;;;;;;;3.33;1.88;;;;;;;;;;5025232;28;20091;-77
2023/05/14 08:38:44;;;;;;;2.28;1.70;;;;;;;;;;5027969;28;20026;-77
2023/05/14 08:41:10;;;;;;;2.83;1.65;;;;;;;;;;5026776;28;20033;-77
2023/05/14 08:43:53;;;;;;;3.17;1.88;;;;;;;;;;5026912;28;20036;-77
2023/05/14 08:46:22;;;;;;;2.58;1.70;;;;;;;;;;5026617;28;20013;-77
2023/05/14 08:48:54;;;;;;;2.63;1.90;;;;;;;;;;5028710;28;20117;-75
2023/05/14 08:51:20;;;;;;;2.97;2.00;;;;;;;;;;5026430;28;20040;-77
2023/05/14 08:53:47;;;;;;;2.80;1.88;;;;;;;;;;5022313;28;20717;-75
2023/05/14 08:56:14;;;;;;;3.72;1.70;;;;;;;;;;5025359;28;20087;-79
2023/05/14 08:58:40;;;;;;;2.83;1.75;;;;;;;;;;5029825;28;20033;-75
2023/05/14 09:01:06;;;;;;;1.90;1.40;;;;;;;;;;5025889;28;20447;-78
2023/05/14 09:03:33;;;;;;;1.80;1.63;;;;;;;;;;5026263;28;20041;-84
2023/05/14 09:05:59;;;;;;;3.10;1.90;;;;;;;;;;5026510;28;20030;-79
2023/05/14 09:08:25;;;;;;;3.65;1.90;;;;;;;;;;5022350;28;20131;-73
2023/05/14 09:10:51;;;;;;;2.55;1.92;;;;;;;;;;5022859;28;20021;-76
2023/05/14 09:13:17;;;;;;;6.20;1.88;;;;;;;;;;5022897;28;20037;-76
2023/05/14 09:15:43;;;;;;;1.90;1.60;;;;;;;;;;5025506;28;20048;-74
2023/05/14 09:18:09;;;;;;;1.95;1.48;;;;;;;;;;5026503;28;20018;-75
2023/05/14 09:20:35;;;;;;;1.73;1.58;;;;;;;;;;5022502;28;20112;-75
2023/05/14 09:23:01;;;;;;;5.18;1.85;;;;;;;;;;5027146;28;20124;-74
2023/05/14 09:25:30;;;;;;;3.72;1.88;;;;;;;;;;5023069;28;20036;-75
2023/05/14 09:27:57;;;;;;;2.85;1.98;;;;;;;;;;5024002;28;20018;-75
2023/05/14 09:30:23;;;;;;;1.83;1.60;;;;;;;;;;5023845;28;20444;-75
2023/05/14 09:32:55;;;;;;;2.80;1.63;;;;;;;;;;5020698;28;20041;-76
2023/05/14 09:35:22;;;;;;;3.72;1.70;;;;;;;;;;5024719;28;20492;-82
2023/05/14 09:37:52;;;;;;;2.33;1.63;;;;;;;;;;5025846;28;20038;-76
2023/05/14 09:40:19;;;;;;;2.40;2.03;;;;;;;;;;5026136;28;20064;-76
2023/05/14 09:42:47;;;;;;;3.13;1.65;;;;;;;;;;5025133;28;20303;-78
2023/05/14 09:45:13;;;;;;;2.58;1.80;;;;;;;;;;5023701;28;20022;-76
2023/05/14 09:47:39;;;;;;;2.13;1.80;;;;;;;;;;5025493;28;20022;-78
2023/05/14 09:50:05;;;;;;;3.85;1.73;;;;;;;;;;5023779;28;20458;-78
2023/05/14 09:52:31;;;;;;;2.45;1.77;;;;;;;;;;5023984;28;20121;-77
2023/05/14 09:54:58;;;;;;;1.75;1.60;;;;;;;;;;4987837;28;20033;-78
2023/05/14 09:57:23;;;;;;;3.92;1.33;;;;;;;;;;5021093;28;20084;-77
2023/05/14 09:59:49;;;;;;;2.25;1.73;;;;;;;;;;5021517;28;20029;-77
2023/05/14 10:02:21;;;;;;;3.22;1.52;;;;;;;;;;5017334;28;20033;-75
2023/05/14 10:04:48;;;;;;;3.63;1.70;;;;;;;;;;5021828;28;20040;-77
2023/05/14 10:07:15;;;;;;;2.28;1.40;;;;;;;;;;5023466;28;20033;-77
2023/05/14 10:09:45;;;;;;;2.28;1.83;;;;;;;;;;5022588;28;20032;-76
2023/05/14 10:12:16;;;;;;;3.13;1.75;;;;;;;;;;5024310;28;20053;-75
2023/05/14 10:14:44;;;;;;;2.67;1.75;;;;;;;;;;5006528;28;20029;-76
2023/05/14 10:17:17;;;;;;;3.05;1.85;;;;;;;;;;5029918;28;20040;-76
2023/05/14 10:19:45;;;;;;;3.90;1.92;;;;;;;;;;5027452;28;20026;-76
2023/05/14 10:22:12;;;;;;;5.90;1.48;;;;;;;;;;5030050;28;20094;-76
2023/05/14 10:24:38;;;;;;;3.20;1.67;;;;;;;;;;5027458;28;20036;-76
2023/05/14 10:27:04;;;;;;;1.40;1.30;;;;;;;;;;5033020;28;20029;-76
2023/05/14 10:29:31;;;;;;;1.90;1.60;;;;;;;;;;5034821;28;20029;-76
2023/05/14 10:31:57;;;;;;;2.55;1.73;;;;;;;;;;5040714;28;20029;-75
2023/05/14 10:34:42;;;;;;;1.83;1.50;;;;;;;;;;5033947;28;20075;-76
2023/05/14 10:37:10;;;;;;;2.70;1.50;;;;;;;;;;5037452;28;20108;-76
2023/05/14 10:39:43;;;;;;;2.95;1.60;;;;;;;;;;5028971;28;20391;-75
2023/05/14 10:42:11;;;;;;;3.15;1.60;;;;;;;;;;5035734;28;20071;-76
2023/05/14 10:44:40;;;;;;;1.60;1.40;;;;;;;;;;5032108;28;20113;-76
2023/05/14 10:47:06;;;;;;;1.30;1.20;;;;;;;;;;5031818;28;20043;-82
2023/05/14 10:49:33;;;;;;;2.40;1.80;;;;;;;;;;5026152;28;20658;-78
2023/05/14 10:51:59;;;;;;;2.25;1.85;;;;;;;;;;5030640;28;20507;-77
2023/05/14 10:54:27;;;;;;;4.07;2.10;;;;;;;;;;5032096;28;20041;-77
2023/05/14 10:56:53;;;;;;;2.03;1.30;;;;;;;;;;5028651;28;20574;-77
2023/05/14 10:59:19;;;;;;;4.45;1.40;;;;;;;;;;5026886;28;20021;-76
2023/05/14 11:01:45;;;;;;;3.53;2.08;;;;;;;;;;5036738;28;20211;-77
2023/05/14 11:04:23;;;;;;;2.17;1.63;;;;;;;;;;5033047;28;20045;-81
2023/05/14 11:06:51;;;;;;;2.80;1.75;;;;;;;;;;5026305;28;20143;-81
2023/05/14 11:09:17;;;;;;;2.70;1.83;;;;;;;;;;5029029;28;20030;-80
2023/05/14 11:11:43;;;;;;;2.83;1.63;;;;;;;;;;5034456;28;20021;-80
2023/05/14 11:14:09;;;;;;;2.50;2.30;;;;;;;;;;5028143;28;20384;-81
2023/05/14 11:16:36;;;;;;;2.17;1.60;;;;;;;;;;5019993;28;20025;-81
2023/05/14 11:19:03;;;;;;;2.45;1.88;;;;;;;;;;5034010;28;20071;-81
2023/05/14 11:21:31;;;;;;;3.90;1.48;;;;;;;;;;5009416;28;20045;-82
2023/05/14 11:23:57;;;;;;;4.55;1.85;;;;;;;;;;5027281;28;20017;-81
2023/05/14 11:26:23;;;;;;;3.13;2.20;;;;;;;;;;5040964;28;20460;-81
2023/05/14 11:28:56;;;;;;;2.30;2.10;;;;;;;;;;5034798;28;20114;-82
2023/05/14 11:31:28;;;;;;;3.60;2.30;;;;;;;;;;5028559;28;20108;-82
2023/05/14 11:33:54;;;;;;;6.18;2.40;;;;;;;;;;5034145;28;20056;-81
2023/05/14 11:36:32;;;;;;;3.55;2.40;;;;;;;;;;5034354;28;20029;-85
2023/05/14 11:39:01;;;;;;;3.17;2.13;;;;;;;;;;5026672;28;20033;-81
2023/05/14 11:41:27;;;;;;;7.10;3.05;;;;;;;;;;5009913;28;20484;-82
2023/05/14 11:43:53;;;;;;;8.45;3.70;;;;;;;;;;5040310;28;20017;-81
2023/05/14 11:46:28;;;;;;;6.38;3.50;;;;;;;;;;5034230;28;20056;-81
2023/05/14 11:48:54;;;;;;;7.40;3.60;;;;;;;;;;5041179;28;20164;-80
2023/05/14 11:51:21;;;;;;;5.80;2.70;;;;;;;;;;5043049;28;20029;-80
2023/05/14 11:53:53;;;;;;;9.43;3.75;;;;;;;;;;5033078;28;20017;-81
2023/05/14 11:56:21;;;;;;;6.68;3.80;;;;;;;;;;5040739;28;20108;-81
2023/05/14 11:59:04;;;;;;;12.38;5.25;;;;;;;;;;5030020;28;20033;-80
2023/05/14 12:01:37;;;;;;;8.50;4.90;;;;;;;;;;5031608;28;20013;-81
2023/05/14 12:04:04;;;;;;;7.82;4.43;;;;;;;;;;5029346;28;20046;-81
2023/05/14 12:06:31;;;;;;;9.40;4.65;;;;;;;;;;5032252;28;20033;-80
2023/05/14 12:08:57;;;;;;;9.63;3.53;;;;;;;;;;5041045;28;20487;-80
2023/05/14 12:11:23;;;;;;;10.10;3.97;;;;;;;;;;5037733;28;20025;-81
2023/05/14 12:13:49;;;;;;;7.50;4.07;;;;;;;;;;5029203;28;20029;-81
2023/05/14 12:16:16;;;;;;;7.65;3.28;;;;;;;;;;5035447;28;20021;-81
2023/05/14 12:18:42;;;;;;;6.47;3.85;;;;;;;;;;5044156;28;20104;-80
2023/05/14 12:21:08;;;;;;;6.30;2.95;;;;;;;;;;5033846;28;20177;-83
2023/05/14 12:23:34;;;;;;;5.93;3.05;;;;;;;;;;5031269;28;20080;-82
2023/05/14 12:26:07;;;;;;;6.55;3.33;;;;;;;;;;5031537;28;20160;-80
2023/05/14 12:28:34;;;;;;;6.25;3.50;;;;;;;;;;5036526;28;20483;-81
2023/05/14 12:31:00;;;;;;;4.90;2.65;;;;;;;;;;5030541;28;20033;-82
2023/05/14 12:33:26;;;;;;;5.15;3.22;;;;;;;;;;5027742;28;20112;-81
2023/05/14 12:35:52;;;;;;;7.68;3.03;;;;;;;;;;5042755;28;20119;-82
2023/05/14 12:38:19;;;;;;;7.43;3.60;;;;;;;;;;5036101;28;20124;-81
2023/05/14 12:40:45;;;;;;;4.57;2.88;;;;;;;;;;5031194;28;20033;-81
2023/05/14 12:43:14;;;;;;;4.35;2.83;;;;;;;;;;5039677;28;20379;-81
2023/05/14 12:45:40;;;;;;;6.57;3.28;;;;;;;;;;5029146;28;20723;-81
2023/05/14 12:48:06;;;;;;;6.70;3.58;;;;;;;;;;5031457;28;20475;-81
2023/05/14 12:50:32;;;;;;;6.15;3.55;;;;;;;;;;5037298;28;20024;-81
2023/05/14 12:53:01;;;;;;;6.65;3.50;;;;;;;;;;5014247;28;20029;-81
2023/05/14 12:55:27;;;;;;;11.27;4.47;;;;;;;;;;5031134;28;20104;-82
2023/05/14 12:57:53;;;;;;;7.97;3.92;;;;;;;;;;5019118;28;20040;-80
2023/05/14 13:00:19;;;;;;;11.93;4.00;;;;;;;;;;5028683;28;20537;-81
2023/05/14 13:02:45;;;;;;;6.78;3.55;;;;;;;;;;5030515;28;20026;-80
2023/05/14 13:05:11;;;;;;;6.90;3.22;;;;;;;;;;5042661;28;20404;-81
2023/05/14 13:07:38;;;;;;;5.65;2.85;;;;;;;;;;5032763;28;20013;-82
2023/05/14 13:10:07;;;;;;;6.55;3.72;;;;;;;;;;5043324;28;20673;-80
2023/05/14 13:12:33;;;;;;;6.82;3.78;;;;;;;;;;5038447;28;20086;-82
2023/05/14 13:14:59;;;;;;;4.45;2.42;;;;;;;;;;5030399;28;20694;-81
2023/05/14 13:17:25;;;;;;;12.52;3.28;;;;;;;;;;5040619;28;20060;-81
2023/05/14 13:19:51;;;;;;;5.03;2.80;;;;;;;;;;5030483;28;20022;-81
2023/05/14 13:22:17;;;;;;;4.60;3.30;;;;;;;;;;5032392;28;20040;-81
2023/05/14 13:24:43;;;;;;;5.25;3.33;;;;;;;;;;5037366;28;20017;-81
2023/05/14 13:27:09;;;;;;;4.47;2.58;;;;;;;;;;5041179;28;20029;-81
2023/05/14 13:29:36;;;;;;;4.13;2.72;;;;;;;;;;5035110;28;20029;-81
2023/05/14 13:32:02;;;;;;;4.30;2.33;;;;;;;;;;5030315;28;20032;-82
2023/05/14 13:34:28;;;;;;;3.72;2.40;;;;;;;;;;5039658;28;20020;-82
2023/05/14 13:36:54;;;;;;;3.88;2.28;;;;;;;;;;5039290;28;20013;-81
2023/05/14 13:39:21;;;;;;;4.85;2.28;;;;;;;;;;5030792;28;20217;-81
2023/05/14 13:41:50;;;;;;;2.63;2.00;;;;;;;;;;5030985;28;20063;-82
2023/05/14 13:44:16;;;;;;;3.70;1.92;;;;;;;;;;5034896;28;20013;-81
2023/05/14 13:46:42;;;;;;;6.05;2.30;;;;;;;;;;5032191;28;20029;-81
2023/05/14 13:49:08;;;;;;;2.78;2.08;;;;;;;;;;5040352;28;20032;-82
2023/05/14 13:51:34;;;;;;;6.05;2.10;;;;;;;;;;5042548;28;20025;-81
2023/05/14 13:54:00;;;;;;;4.05;2.33;;;;;;;;;;5040300;28;20541;-82
2023/05/14 13:56:26;;;;;;;3.45;2.38;;;;;;;;;;5032484;28;20503;-82
2023/05/14 13:58:52;;;;;;;7.95;2.63;;;;;;;;;;5033680;28;20460;-82
2023/05/14 14:01:18;;;;;;;3.70;2.65;;;;;;;;;;5037138;28;20464;-81
2023/05/14 14:03:44;;;;;;;5.75;3.05;;;;;;;;;;5032389;28;20048;-81
2023/05/14 14:06:10;;;;;;;5.63;2.42;;;;;;;;;;5039767;28;20022;-81
2023/05/14 14:08:36;;;;;;;3.70;2.38;;;;;;;;;;5036643;28;20025;-81
2023/05/14 14:11:02;;;;;;;3.55;2.20;;;;;;;;;;5029631;28;20098;-81
2023/05/14 14:13:28;;;;;;;4.20;2.35;;;;;;;;;;5032176;28;20067;-80
2023/05/14 14:15:54;;;;;;;3.20;2.22;;;;;;;;;;5030561;28;20037;-81
2023/05/14 14:18:20;;;;;;;4.22;2.42;;;;;;;;;;5022053;28;20120;-81
2023/05/14 14:20:46;;;;;;;2.70;2.10;;;;;;;;;;5032289;28;20694;-81
2023/05/14 14:23:12;;;;;;;6.10;2.83;;;;;;;;;;5030189;28;20040;-80
2023/05/14 14:25:38;;;;;;;3.20;1.88;;;;;;;;;;5038946;28;20025;-80
2023/05/14 14:28:04;;;;;;;2.75;1.80;;;;;;;;;;5040205;28;20185;-81
2023/05/14 14:30:30;;;;;;;2.80;1.98;;;;;;;;;;5029800;28;20500;-81
2023/05/14 14:32:56;;;;;;;2.80;2.10;;;;;;;;;;5028196;28;20389;-80
2023/05/14 14:35:22;;;;;;;3.67;2.40;;;;;;;;;;5037856;28;20048;-81
2023/05/14 14:37:49;;;;;;;3.20;1.98;;;;;;;;;;5040324;28;20029;-81
2023/05/14 14:40:16;;;;;;;4.30;2.03;;;;;;;;;;5031925;28;20030;-80